Time;durP1;ratioP1;P1;durP2;ratioP2;P2;SDS_P1;SDS_P2;PMS_P1;PMS_P2;Temp;Humidity;BMP_temperature;BMP_pressure;BME280_temperature;BME280_humidity;BME280_pressure;Samples;Min_cycle;Max_cycle;Signal;HPM_P1;HPM_P2
2021/01/16 00:01:00;;;;;;;15.15;6.35;;;;;;;-8.53;79.29;101683.03;5064466;28;20027;-69
2021/01/16 00:03:26;;;;;;;11.25;4.97;;;;;;;-8.53;79.21;101685.56;5065909;28;20086;-69
2021/01/16 00:05:53;;;;;;;12.10;5.90;;;;;;;-8.55;79.32;101688.72;5065975;28;20481;-70
2021/01/16 00:08:23;;;;;;;18.55;6.82;;;;;;;-8.62;79.10;101685.66;5065453;28;20064;-70
2021/01/16 00:10:54;;;;;;;13.93;5.65;;;;;;;-8.67;79.17;101673.41;5065651;28;20078;-70
2021/01/16 00:13:25;;;;;;;12.02;5.57;;;;;;;-8.63;79.12;101680.50;5065805;28;20080;-69
2021/01/16 00:15:51;;;;;;;11.77;5.77;;;;;;;-8.64;79.04;101679.59;5065454;28;20062;-69
2021/01/16 00:18:18;;;;;;;14.80;6.57;;;;;;;-8.64;79.19;101673.69;5065582;28;20020;-69
2021/01/16 00:20:46;;;;;;;16.55;5.57;;;;;;;-8.66;79.08;101666.00;5065250;28;20025;-70
2021/01/16 00:23:12;;;;;;;12.15;5.18;;;;;;;-8.65;79.11;101657.69;5065085;28;20021;-71
2021/01/16 00:25:38;;;;;;;14.65;5.47;;;;;;;-8.68;79.10;101667.47;5065272;28;20048;-69
2021/01/16 00:28:05;;;;;;;13.85;5.03;;;;;;;-8.69;78.87;101652.25;5065517;28;20033;-69
2021/01/16 00:30:33;;;;;;;8.85;4.90;;;;;;;-8.69;79.05;101654.75;5065061;28;20032;-71
2021/01/16 00:33:00;;;;;;;10.80;5.13;;;;;;;-8.76;79.12;101644.13;5065196;28;20217;-69
2021/01/16 00:35:30;;;;;;;12.20;5.65;;;;;;;-8.73;79.19;101644.41;5063832;28;20029;-70
2021/01/16 00:37:55;;;;;;;13.68;5.72;;;;;;;-8.70;79.27;101651.34;5064733;28;20505;-70
2021/01/16 00:40:23;;;;;;;9.63;4.72;;;;;;;-8.72;79.37;101640.28;5063929;28;20080;-69
2021/01/16 00:42:51;;;;;;;11.45;5.85;;;;;;;-8.75;79.38;101630.78;5063851;28;20029;-69
2021/01/16 00:45:18;;;;;;;13.98;4.90;;;;;;;-8.76;79.61;101628.13;5063547;28;20038;-69
2021/01/16 00:47:45;;;;;;;11.15;5.63;;;;;;;-8.71;79.33;101635.38;5063673;28;20116;-69
2021/01/16 00:50:12;;;;;;;13.05;6.07;;;;;;;-8.72;79.33;101636.09;5065014;28;20076;-69
2021/01/16 00:52:38;;;;;;;16.10;5.78;;;;;;;-8.75;79.29;101640.88;5063632;28;20025;-69
2021/01/16 00:55:08;;;;;;;20.10;5.32;;;;;;;-8.76;79.32;101629.03;5063383;28;20124;-69
2021/01/16 00:57:35;;;;;;;10.93;5.50;;;;;;;-8.73;79.27;101638.47;5064830;28;20040;-70
2021/01/16 01:00:00;;;;;;;16.02;6.43;;;;;;;-8.75;79.19;101629.91;5064629;28;20301;-71
2021/01/16 01:02:25;;;;;;;12.23;5.43;;;;;;;-8.74;79.09;101630.03;5064163;28;20383;-68
2021/01/16 01:04:51;;;;;;;12.20;6.15;;;;;;;-8.74;79.28;101631.69;5064747;28;20029;-69
2021/01/16 01:07:17;;;;;;;13.30;5.80;;;;;;;-8.74;79.19;101631.69;5064292;28;20082;-69
2021/01/16 01:09:44;;;;;;;10.90;4.90;;;;;;;-8.76;79.52;101634.06;5064530;28;20025;-69
2021/01/16 01:12:11;;;;;;;16.42;5.30;;;;;;;-8.75;79.34;101629.91;5064340;28;20032;-69
2021/01/16 01:14:37;;;;;;;15.60;5.25;;;;;;;-8.71;79.33;101642.94;5064442;28;20025;-69
2021/01/16 01:17:12;;;;;;;7.35;3.88;;;;;;;-8.73;79.42;101641.91;5064340;28;20035;-69
2021/01/16 01:19:38;;;;;;;11.07;5.00;;;;;;;-8.69;79.58;101637.13;5064287;28;20029;-70
2021/01/16 01:22:03;;;;;;;13.30;4.97;;;;;;;-8.73;79.42;101629.31;5064006;28;20055;-69
2021/01/16 01:24:28;;;;;;;12.20;5.10;;;;;;;-8.70;79.33;101628.69;5064568;28;20388;-69
2021/01/16 01:26:54;;;;;;;13.73;5.00;;;;;;;-8.71;79.48;101622.78;5064169;28;20048;-68
2021/01/16 01:29:19;;;;;;;12.57;5.25;;;;;;;-8.72;79.34;101615.97;5064169;28;20024;-69
2021/01/16 01:31:45;;;;;;;12.43;5.32;;;;;;;-8.62;79.24;101621.81;5064028;28;20036;-70
2021/01/16 01:34:10;;;;;;;9.68;4.63;;;;;;;-8.61;79.25;101626.13;5079598;28;20104;-69
2021/01/16 01:36:36;;;;;;;16.23;5.38;;;;;;;-8.68;79.27;101618.75;5064058;28;20031;-69
2021/01/16 01:39:02;;;;;;;13.55;4.78;;;;;;;-8.60;79.27;101625.34;5063469;28;20025;-69
2021/01/16 01:41:27;;;;;;;12.32;5.50;;;;;;;-8.62;79.24;101609.22;5063122;28;20009;-69
2021/01/16 01:43:53;;;;;;;11.70;5.72;;;;;;;-8.58;79.10;101608.75;5063936;28;20098;-69
2021/01/16 01:46:18;;;;;;;12.68;5.65;;;;;;;-8.64;79.02;101604.03;5063993;28;20021;-69
2021/01/16 01:48:45;;;;;;;11.23;5.43;;;;;;;-8.61;79.06;101591.72;5062587;28;20080;-69
2021/01/16 01:51:12;;;;;;;10.27;4.03;;;;;;;-8.57;79.09;101595.41;5063949;28;20086;-69
2021/01/16 01:53:40;;;;;;;16.00;4.95;;;;;;;-8.58;79.15;101591.13;5063622;28;20048;-69
2021/01/16 01:56:06;;;;;;;9.45;3.70;;;;;;;-8.58;79.44;101583.56;5063751;28;20528;-69
2021/01/16 01:58:34;;;;;;;9.98;4.68;;;;;;;-8.50;79.96;101591.78;5063864;28;20048;-69
2021/01/16 02:01:00;;;;;;;10.48;5.28;;;;;;;-8.43;79.76;101588.16;5063518;28;20052;-69
2021/01/16 02:03:27;;;;;;;10.05;4.82;;;;;;;-8.38;79.55;101590.31;5063801;28;20021;-69
2021/01/16 02:05:56;;;;;;;11.13;4.85;;;;;;;-8.38;79.41;101587.81;5079281;28;20032;-70
2021/01/16 02:08:22;;;;;;;9.90;4.78;;;;;;;-8.43;78.99;101590.69;5063332;28;20067;-69
2021/01/16 02:10:48;;;;;;;11.27;4.75;;;;;;;-8.41;79.11;101584.13;5063699;28;20033;-70
2021/01/16 02:13:14;;;;;;;13.13;5.03;;;;;;;-8.46;79.24;101592.19;5063830;28;20033;-70
2021/01/16 02:15:52;;;;;;;12.50;5.25;;;;;;;-8.46;79.23;101606.41;5063981;28;20036;-69
2021/01/16 02:18:30;;;;;;;12.52;5.82;;;;;;;-8.43;79.31;101609.19;5063343;28;20039;-69
2021/01/16 02:21:00;;;;;;;10.50;4.75;;;;;;;-8.45;79.34;101603.16;5063618;28;20025;-69
2021/01/16 02:23:28;;;;;;;13.60;5.32;;;;;;;-8.43;79.24;101599.09;5063319;28;20067;-69
2021/01/16 02:26:07;;;;;;;14.93;5.63;;;;;;;-8.47;79.29;101587.00;5063986;28;20032;-68
2021/01/16 02:28:35;;;;;;;15.15;5.25;;;;;;;-8.49;79.33;101588.50;5063750;28;20047;-68
2021/01/16 02:31:03;;;;;;;9.80;4.50;;;;;;;-8.46;79.43;101599.72;5063496;28;20112;-69
2021/01/16 02:33:30;;;;;;;10.43;6.20;;;;;;;-8.46;79.44;101592.19;5063756;28;20037;-69
2021/01/16 02:36:26;;;;;;;16.10;5.78;;;;;;;-8.43;79.49;101590.69;5064189;28;20028;-69
2021/01/16 02:38:59;;;;;;;11.90;5.35;;;;;;;-8.45;79.16;101590.56;5063444;28;20092;-70
2021/01/16 02:41:50;;;;;;;13.35;5.78;;;;;;;-8.50;79.25;101587.59;5063398;28;20037;-68
2021/01/16 02:44:44;;;;;;;15.48;5.85;;;;;;;-8.51;79.25;101585.84;5063565;28;20060;-68
2021/01/16 02:47:22;;;;;;;11.18;5.28;;;;;;;-8.53;79.13;101577.25;5062321;28;20036;-68
2021/01/16 02:49:53;;;;;;;11.90;5.53;;;;;;;-8.54;79.28;101572.97;5062212;28;20503;-67
2021/01/16 02:52:21;;;;;;;9.02;4.47;;;;;;;-8.55;79.26;101570.34;5063016;28;20081;-68
2021/01/16 02:54:48;;;;;;;10.52;5.47;;;;;;;-8.56;79.40;101571.13;5063532;28;20029;-68
2021/01/16 02:57:15;;;;;;;14.13;5.57;;;;;;;-8.58;79.65;101571.00;5078360;28;20045;-69
2021/01/16 02:59:45;;;;;;;10.02;5.05;;;;;;;-8.56;79.30;101566.09;5063461;28;20088;-68
2021/01/16 03:02:13;;;;;;;16.40;5.47;;;;;;;-8.54;79.38;101562.91;5061920;28;20013;-68
2021/01/16 03:04:39;;;;;;;11.98;5.30;;;;;;;-8.54;79.42;101567.09;5063617;28;20021;-68
2021/01/16 03:07:06;;;;;;;13.23;5.97;;;;;;;-8.52;79.40;101561.41;5062988;28;20025;-69
2021/01/16 03:09:33;;;;;;;13.52;5.55;;;;;;;-8.55;79.18;101555.25;5061941;28;20070;-69
2021/01/16 03:11:59;;;;;;;13.95;6.07;;;;;;;-8.52;79.03;101558.91;5063219;28;20029;-70
2021/01/16 03:14:28;;;;;;;14.27;5.10;;;;;;;-8.58;79.10;101545.81;5063008;28;20028;-71
2021/01/16 03:17:06;;;;;;;11.88;5.30;;;;;;;-8.52;79.07;101552.97;5065313;28;20059;-69
2021/01/16 03:19:34;;;;;;;13.80;5.18;;;;;;;-8.53;78.93;101553.72;5066824;28;20084;-70
2021/01/16 03:22:05;;;;;;;11.43;4.78;;;;;;;-8.52;79.04;101551.34;5066479;28;20081;-70
2021/01/16 03:24:30;;;;;;;11.75;5.05;;;;;;;-8.50;79.02;101552.34;5066464;28;20028;-69
2021/01/16 03:26:56;;;;;;;10.82;5.10;;;;;;;-8.48;79.20;101555.88;5066702;28;20056;-69
2021/01/16 03:29:21;;;;;;;14.82;5.32;;;;;;;-8.50;79.27;101552.34;5082036;28;20412;-70
2021/01/16 03:31:46;;;;;;;11.18;5.07;;;;;;;-8.54;79.04;101542.75;5081655;28;20322;-69
2021/01/16 03:34:12;;;;;;;10.18;5.50;;;;;;;-8.50;78.90;101546.44;5066399;28;20029;-69
2021/01/16 03:36:37;;;;;;;14.15;4.85;;;;;;;-8.50;78.89;101549.81;5066454;28;20043;-70
2021/01/16 03:39:03;;;;;;;11.00;4.45;;;;;;;-8.57;78.88;101531.56;5065601;28;20036;-69
2021/01/16 03:41:28;;;;;;;10.25;4.43;;;;;;;-8.60;79.34;101524.63;5066294;28;20085;-70
2021/01/16 03:43:54;;;;;;;9.85;4.85;;;;;;;-8.52;79.71;101531.19;5066417;28;20059;-72
2021/01/16 03:46:19;;;;;;;7.68;4.00;;;;;;;-8.49;79.98;101530.56;5065146;28;20032;-70
2021/01/16 03:48:44;;;;;;;11.88;5.50;;;;;;;-8.41;79.86;101529.59;5064853;28;20020;-69
2021/01/16 03:51:10;;;;;;;13.07;5.43;;;;;;;-8.32;80.10;101529.50;5065945;28;20028;-69
2021/01/16 03:53:35;;;;;;;13.02;5.20;;;;;;;-8.27;79.78;101529.91;5065885;28;20048;-68
2021/01/16 03:56:01;;;;;;;14.82;5.90;;;;;;;-8.25;79.67;101525.88;5065990;28;20049;-68
2021/01/16 03:58:26;;;;;;;10.05;4.97;;;;;;;-8.32;79.38;101511.88;5081212;28;20021;-70
2021/01/16 04:00:52;;;;;;;13.32;4.75;;;;;;;-8.25;79.40;101518.31;5065801;28;20021;-68
2021/01/16 04:03:17;;;;;;;10.45;4.53;;;;;;;-8.22;79.39;101521.09;5081526;28;20060;-69
2021/01/16 04:05:42;;;;;;;9.07;3.75;;;;;;;-8.20;79.27;101522.13;5065841;28;20051;-69
2021/01/16 04:08:08;;;;;;;9.15;4.15;;;;;;;-8.24;79.42;101520.97;5065555;28;20024;-70
2021/01/16 04:10:33;;;;;;;9.90;5.30;;;;;;;-8.19;79.35;101518.84;5081217;28;20025;-69
2021/01/16 04:12:59;;;;;;;7.47;3.92;;;;;;;-8.18;79.32;101527.31;5065691;28;20073;-69
2021/01/16 04:15:24;;;;;;;7.70;3.67;;;;;;;-8.15;79.20;101527.56;5065833;28;20025;-69
2021/01/16 04:17:49;;;;;;;10.13;3.90;;;;;;;-8.15;79.22;101525.03;5065697;28;20029;-70
2021/01/16 04:20:15;;;;;;;9.65;4.18;;;;;;;-8.15;79.46;101522.53;5065588;28;20031;-70
2021/01/16 04:22:40;;;;;;;6.82;3.35;;;;;;;-8.16;79.28;101520.78;5065182;28;20024;-69
2021/01/16 04:25:06;;;;;;;10.68;4.50;;;;;;;-8.15;79.57;101509.94;5065471;28;20054;-68
2021/01/16 04:27:33;;;;;;;9.80;4.57;;;;;;;-8.13;79.40;101508.44;5064281;28;20032;-69
2021/01/16 04:29:59;;;;;;;15.57;5.95;;;;;;;-8.16;79.31;101496.44;5065468;28;20024;-69
2021/01/16 04:32:25;;;;;;;14.88;6.75;;;;;;;-8.18;79.26;101490.41;5065065;28;20029;-72
2021/01/16 04:34:50;;;;;;;10.77;5.40;;;;;;;-8.24;79.16;101485.69;5065480;28;20032;-69
2021/01/16 04:37:15;;;;;;;16.38;7.30;;;;;;;-8.26;79.29;101499.78;5080384;28;20025;-70
2021/01/16 04:39:41;;;;;;;13.63;6.78;;;;;;;-8.32;79.11;101494.22;5065169;28;20060;-69
2021/01/16 04:42:08;;;;;;;18.08;7.07;;;;;;;-8.40;79.26;101487.69;5064980;28;20032;-69
2021/01/16 04:44:35;;;;;;;11.07;5.43;;;;;;;-8.53;79.05;101475.66;5065138;28;20029;-71
2021/01/16 04:47:03;;;;;;;13.02;5.53;;;;;;;-8.47;79.25;101484.63;5065129;28;20016;-69
2021/01/16 04:49:28;;;;;;;12.35;5.88;;;;;;;-8.45;79.51;101484.75;5064961;28;20028;-70
2021/01/16 04:51:56;;;;;;;11.18;5.63;;;;;;;-8.40;79.25;101486.00;5064908;28;20032;-69
2021/01/16 04:54:23;;;;;;;14.77;5.65;;;;;;;-8.38;79.34;101483.63;5064605;28;20083;-69
2021/01/16 04:56:48;;;;;;;12.00;6.20;;;;;;;-8.34;79.42;101488.19;5064609;28;20131;-69
2021/01/16 04:59:14;;;;;;;11.68;5.57;;;;;;;-8.34;79.16;101491.59;5064745;28;20025;-70
2021/01/16 05:01:40;;;;;;;11.27;5.53;;;;;;;-8.34;79.19;101484.03;5064596;28;20021;-69
2021/01/16 05:04:07;;;;;;;10.77;5.28;;;;;;;-8.36;79.20;101482.13;5064628;28;20039;-69
2021/01/16 05:06:38;;;;;;;10.57;5.60;;;;;;;-8.47;79.57;101474.56;5064453;28;20047;-70
2021/01/16 05:09:04;;;;;;;10.88;5.70;;;;;;;-8.38;79.59;101476.06;5064393;28;20021;-70
2021/01/16 05:11:32;;;;;;;13.35;5.60;;;;;;;-8.37;79.34;101468.66;5064379;28;20025;-69
2021/01/16 05:14:15;;;;;;;11.60;5.55;;;;;;;-8.37;79.50;101467.78;5064463;28;20025;-69
2021/01/16 05:16:56;;;;;;;10.70;4.65;;;;;;;-8.38;79.73;101456.81;5064338;28;20099;-70
2021/01/16 05:19:28;;;;;;;14.77;5.28;;;;;;;-8.34;79.38;101468.91;5064590;28;20021;-71
2021/01/16 05:21:54;;;;;;;10.45;5.15;;;;;;;-8.37;79.21;101458.56;5064351;28;20025;-69
2021/01/16 05:24:20;;;;;;;10.02;4.88;;;;;;;-8.31;79.49;101473.34;5064008;28;20020;-69
2021/01/16 05:27:01;;;;;;;9.27;4.95;;;;;;;-8.34;79.70;101466.38;5064319;28;20031;-69
2021/01/16 05:29:28;;;;;;;10.20;4.90;;;;;;;-8.31;79.97;101459.84;5079666;28;20046;-69
2021/01/16 05:31:55;;;;;;;10.73;4.65;;;;;;;-8.29;79.67;101459.22;5064010;28;20036;-68
2021/01/16 05:34:25;;;;;;;7.32;3.83;;;;;;;-8.32;79.60;101451.41;5079357;28;20021;-69
2021/01/16 05:36:51;;;;;;;16.52;5.63;;;;;;;-8.25;79.67;101453.72;5064212;28;20096;-68
2021/01/16 05:39:18;;;;;;;12.80;5.57;;;;;;;-8.25;79.59;101448.66;5063085;28;20032;-69
2021/01/16 05:41:45;;;;;;;8.20;4.25;;;;;;;-8.27;79.57;101445.13;5063223;28;20059;-68
2021/01/16 05:44:12;;;;;;;10.27;4.50;;;;;;;-8.22;79.70;101446.41;5063643;28;20355;-69
2021/01/16 05:46:43;;;;;;;11.30;5.63;;;;;;;-8.17;79.65;101438.34;5063902;28;20027;-68
2021/01/16 05:49:14;;;;;;;9.93;5.63;;;;;;;-8.18;79.54;101436.59;5079320;28;20118;-69
2021/01/16 05:51:41;;;;;;;11.00;4.40;;;;;;;-8.26;79.22;101438.47;5063693;28;20026;-69
2021/01/16 05:54:07;;;;;;;9.07;4.20;;;;;;;-8.30;79.36;101428.84;5063560;28;20076;-69
2021/01/16 05:56:35;;;;;;;8.07;4.13;;;;;;;-8.23;79.28;101439.63;5063749;28;20099;-69
2021/01/16 05:59:01;;;;;;;10.07;4.30;;;;;;;-8.26;79.41;101430.91;5062352;28;20025;-69
2021/01/16 06:01:27;;;;;;;13.02;4.28;;;;;;;-8.33;79.39;101424.47;5063615;28;20528;-69
2021/01/16 06:03:57;;;;;;;10.02;4.13;;;;;;;-8.25;79.37;101428.50;5064050;28;20025;-70
2021/01/16 06:06:23;;;;;;;9.35;5.32;;;;;;;-8.21;79.48;101425.47;5063687;28;20031;-69
2021/01/16 06:08:53;;;;;;;8.02;3.58;;;;;;;-8.20;79.26;101416.31;5063323;28;20055;-69
2021/01/16 06:11:19;;;;;;;8.18;3.92;;;;;;;-8.17;79.34;101418.19;5062113;28;20021;-69
2021/01/16 06:13:48;;;;;;;12.48;4.38;;;;;;;-8.18;79.32;101408.88;5063547;28;20028;-69
2021/01/16 06:16:15;;;;;;;11.13;5.00;;;;;;;-8.19;79.36;101397.91;5063843;28;20096;-69
2021/01/16 06:18:51;;;;;;;11.88;5.45;;;;;;;-8.17;79.26;101403.97;5063562;28;20041;-69
2021/01/16 06:21:27;;;;;;;9.63;4.85;;;;;;;-8.21;79.09;101390.22;5061814;28;20024;-70
2021/01/16 06:23:58;;;;;;;12.00;5.25;;;;;;;-8.24;79.26;101391.63;5063112;28;20025;-69
2021/01/16 06:26:24;;;;;;;10.20;4.60;;;;;;;-8.35;79.10;101376.47;5063524;28;20025;-70
2021/01/16 06:28:55;;;;;;;8.00;4.10;;;;;;;-8.32;79.26;101390.94;5063417;28;20024;-70
2021/01/16 06:31:29;;;;;;;8.48;4.13;;;;;;;-8.37;79.29;101392.22;5078761;28;20037;-70
2021/01/16 06:34:05;;;;;;;12.98;5.03;;;;;;;-8.37;79.33;101398.09;5063358;28;20095;-69
2021/01/16 06:36:36;;;;;;;11.88;4.97;;;;;;;-8.33;79.39;101394.22;5063538;28;20055;-69
2021/01/16 06:39:05;;;;;;;8.38;4.43;;;;;;;-8.34;79.29;101384.91;5063076;28;20021;-70
2021/01/16 06:41:33;;;;;;;11.90;4.13;;;;;;;-8.32;79.42;101401.00;5063195;28;20028;-69
2021/01/16 06:43:59;;;;;;;8.77;3.85;;;;;;;-8.38;79.36;101385.38;5078767;28;20046;-70
2021/01/16 06:46:41;;;;;;;10.13;4.32;;;;;;;-8.38;79.52;101386.28;5063158;28;20025;-69
2021/01/16 06:49:07;;;;;;;12.25;4.63;;;;;;;-8.30;79.58;101383.50;5078585;28;20017;-69
2021/01/16 06:51:33;;;;;;;8.32;3.80;;;;;;;-8.30;79.62;101378.47;5064779;28;20053;-70
2021/01/16 06:54:05;;;;;;;8.50;4.43;;;;;;;-8.26;79.68;101381.38;5066662;28;20476;-69
2021/01/16 06:56:33;;;;;;;7.93;4.53;;;;;;;-8.24;79.87;101379.00;5067020;28;20087;-70
2021/01/16 06:58:59;;;;;;;10.23;4.72;;;;;;;-8.34;79.49;101374.84;5067065;28;20080;-70
2021/01/16 07:01:30;;;;;;;8.80;3.95;;;;;;;-8.34;79.40;101378.22;5066827;28;20021;-70
2021/01/16 07:03:58;;;;;;;10.57;5.20;;;;;;;-8.29;79.57;101386.16;5065619;28;20025;-67
2021/01/16 07:06:24;;;;;;;10.73;4.32;;;;;;;-8.42;79.38;101376.72;5067001;28;20017;-70
2021/01/16 07:08:52;;;;;;;8.95;4.00;;;;;;;-8.39;79.60;101382.00;5066385;28;20025;-69
2021/01/16 07:11:18;;;;;;;7.75;4.63;;;;;;;-8.38;79.55;101372.78;5081934;28;20451;-69
2021/01/16 07:13:45;;;;;;;7.95;4.20;;;;;;;-8.40;79.56;101376.84;5067059;28;20025;-70
2021/01/16 07:16:11;;;;;;;8.93;4.18;;;;;;;-8.34;79.67;101377.34;5065576;28;20017;-68
2021/01/16 07:18:41;;;;;;;12.10;5.05;;;;;;;-8.30;79.56;101370.91;5066565;28;20051;-69
2021/01/16 07:21:08;;;;;;;11.48;4.38;;;;;;;-8.35;79.62;101366.38;5066852;28;20086;-68
2021/01/16 07:23:34;;;;;;;11.10;4.45;;;;;;;-8.37;79.41;101370.41;5066473;28;20029;-66
2021/01/16 07:26:01;;;;;;;7.95;3.80;;;;;;;-8.33;79.31;101369.03;5066652;28;20025;-67
2021/01/16 07:28:27;;;;;;;11.68;4.65;;;;;;;-8.30;79.57;101369.28;5066625;28;20020;-69
2021/01/16 07:30:53;;;;;;;8.88;4.35;;;;;;;-8.24;79.46;101369.78;5065155;28;20024;-69
2021/01/16 07:33:19;;;;;;;9.45;4.82;;;;;;;-8.26;79.56;101365.41;5066401;28;20025;-69
2021/01/16 07:35:51;;;;;;;8.32;4.70;;;;;;;-8.25;79.55;101375.59;5066539;28;20037;-69
2021/01/16 07:38:18;;;;;;;15.32;5.70;;;;;;;-8.17;79.50;101380.38;5065754;28;20470;-69
2021/01/16 07:40:46;;;;;;;11.65;6.47;;;;;;;-8.25;79.43;101365.53;5066489;28;20021;-70
2021/01/16 07:43:35;;;;;;;18.20;7.20;;;;;;;-8.32;79.46;101360.72;5066486;28;20495;-69
2021/01/16 07:46:01;;;;;;;13.00;5.50;;;;;;;-8.34;79.55;101359.72;5065897;28;20050;-69
2021/01/16 07:48:35;;;;;;;14.70;5.95;;;;;;;-8.32;79.59;101365.75;5066336;28;20059;-70
2021/01/16 07:51:01;;;;;;;13.20;5.57;;;;;;;-8.36;79.46;101353.66;5081766;28;20025;-69
2021/01/16 07:53:28;;;;;;;10.43;5.32;;;;;;;-8.46;79.33;101352.00;5065692;28;20106;-69
2021/01/16 07:56:01;;;;;;;10.45;4.75;;;;;;;-8.52;79.70;101351.50;5064384;28;20041;-71
2021/01/16 07:58:32;;;;;;;13.10;5.72;;;;;;;-8.45;79.72;101348.75;5064687;28;20033;-71
2021/01/16 08:01:16;;;;;;;13.98;6.15;;;;;;;-8.44;79.75;101349.59;5066088;28;20020;-70
2021/01/16 08:03:43;;;;;;;16.52;5.93;;;;;;;-8.38;79.59;101355.16;5066037;28;20629;-69
2021/01/16 08:06:25;;;;;;;10.35;3.67;;;;;;;-8.41;79.88;101349.88;5066132;28;20025;-70
2021/01/16 08:09:11;;;;;;;;;;;;;;;-8.30;79.91;101350.75;5065058;28;20049;-69
2021/01/16 08:11:42;;;;;;;11.20;4.57;;;;;;;-8.22;80.31;101333.03;5065826;28;19913;-70
2021/01/16 08:14:08;;;;;;;9.73;4.18;;;;;;;-7.79;81.12;101336.41;5064584;28;20045;-69
2021/01/16 08:16:34;;;;;;;11.07;4.10;;;;;;;-7.24;80.45;101328.97;5065614;28;20437;-70
2021/01/16 08:19:18;;;;;;;10.50;5.20;;;;;;;-6.80;78.95;101318.03;5065792;28;20029;-69
2021/01/16 08:21:58;;;;;;;10.13;4.80;;;;;;;-6.20;78.27;101330.03;5064317;28;20021;-70
2021/01/16 08:24:25;;;;;;;6.88;4.20;;;;;;;-5.77;77.17;101309.53;5064032;28;20012;-70
2021/01/16 08:27:13;;;;;;;10.68;5.53;;;;;;;-5.25;75.68;101325.06;5065547;28;20021;-71
2021/01/16 08:29:44;;;;;;;8.77;4.10;;;;;;;-5.07;74.47;101322.06;5064201;28;20025;-69
2021/01/16 08:32:11;;;;;;;7.72;4.53;;;;;;;-5.06;75.02;101301.00;5080568;28;20025;-74
2021/01/16 08:34:57;;;;;;;9.68;4.53;;;;;;;-5.03;75.31;101313.88;5064118;28;20036;-71
2021/01/16 08:37:33;;;;;;;8.02;3.95;;;;;;;-5.26;74.96;101319.88;5064101;28;20029;-71
2021/01/16 08:40:00;;;;;;;7.25;3.95;;;;;;;-5.39;75.92;101323.19;5064203;28;20441;-74
2021/01/16 08:42:27;;;;;;;9.13;4.68;;;;;;;-5.59;76.17;101320.09;5065059;28;20031;-73
2021/01/16 08:44:54;;;;;;;7.68;4.07;;;;;;;-5.67;76.24;101321.22;5065134;28;20074;-72
2021/01/16 08:47:20;;;;;;;7.85;4.20;;;;;;;-5.77;76.08;101319.66;5063695;28;20031;-74
2021/01/16 08:49:46;;;;;;;6.95;4.30;;;;;;;-5.70;75.90;101323.53;5064908;28;20099;-68
2021/01/16 08:52:11;;;;;;;3.80;2.28;;;;;;;-5.64;76.09;101313.84;5064556;28;20024;-71
2021/01/16 08:54:37;;;;;;;4.53;2.97;;;;;;;-5.66;75.99;101303.63;5064439;28;20028;-73
2021/01/16 08:57:05;;;;;;;6.65;3.97;;;;;;;-5.62;75.80;101313.19;5063110;28;20065;-74
2021/01/16 08:59:32;;;;;;;7.85;3.88;;;;;;;-5.48;76.55;101306.56;5080132;28;20075;-74
2021/01/16 09:02:18;;;;;;;8.57;4.03;;;;;;;-4.92;76.96;101301.97;5064422;28;20033;-71
2021/01/16 09:04:44;;;;;;;7.53;3.40;;;;;;;-4.31;76.07;101293.38;5062953;28;20059;-72
2021/01/16 09:07:22;;;;;;;7.68;3.92;;;;;;;-3.69;74.93;101278.72;5063117;28;20052;-73
2021/01/16 09:09:58;;;;;;;6.35;3.17;;;;;;;-3.07;73.65;101271.56;5064375;28;20020;-72
2021/01/16 09:12:40;;;;;;;4.97;3.15;;;;;;;-2.51;71.94;101279.06;5063030;28;20020;-73
2021/01/16 09:15:20;;;;;;;5.88;3.38;;;;;;;-1.95;71.08;101291.59;5063775;28;20025;-73
2021/01/16 09:18:09;;;;;;;7.72;3.85;;;;;;;-1.50;70.26;101276.25;5064473;28;20043;-71
2021/01/16 09:20:46;;;;;;;5.75;3.47;;;;;;;-1.00;69.14;101271.25;5063052;28;20051;-72
2021/01/16 09:23:37;;;;;;;4.55;3.25;;;;;;;-0.24;67.77;101281.03;5063954;28;20084;-73
2021/01/16 09:26:03;;;;;;;6.38;2.92;;;;;;;0.02;66.42;101276.34;5056245;28;20051;-73
2021/01/16 09:28:50;;;;;;;6.20;3.10;;;;;;;0.45;66.42;101274.97;5079739;28;20037;-72
2021/01/16 09:31:23;;;;;;;5.70;3.35;;;;;;;0.82;67.69;101278.38;5062779;28;20025;-72
2021/01/16 09:33:51;;;;;;;7.13;2.97;;;;;;;1.31;63.81;101269.44;5064378;28;20048;-71
2021/01/16 09:36:36;;;;;;;5.43;2.85;;;;;;;1.70;59.80;101268.53;5062956;28;20021;-72
2021/01/16 09:39:03;;;;;;;7.05;3.17;;;;;;;1.89;58.73;101247.94;5062243;28;20025;-71
2021/01/16 09:41:35;;;;;;;6.43;3.58;;;;;;;2.12;58.43;101260.81;5063067;28;20028;-73
2021/01/16 09:44:04;;;;;;;6.75;3.95;;;;;;;1.97;59.52;101261.94;5062350;28;20021;-71
2021/01/16 09:46:34;;;;;;;7.15;3.63;;;;;;;1.66;62.49;101238.50;5064282;28;20466;-72
2021/01/16 09:49:00;;;;;;;5.20;3.05;;;;;;;1.61;62.26;101268.16;5046574;28;20036;-68
2021/01/16 09:51:30;;;;;;;5.32;3.20;;;;;;;1.97;64.90;101265.38;5063998;28;20017;-69
2021/01/16 09:54:12;;;;;;;5.47;3.50;;;;;;;2.10;61.69;101263.31;5063637;28;20021;-71
2021/01/16 09:56:42;;;;;;;5.85;3.33;;;;;;;2.33;62.04;101258.25;5063906;28;20040;-76
2021/01/16 09:59:11;;;;;;;5.13;3.63;;;;;;;2.70;61.75;101257.06;5062287;28;20029;-78
2021/01/16 10:01:36;;;;;;;5.80;3.22;;;;;;;2.84;61.47;101254.16;5079084;28;20045;-71
2021/01/16 10:04:20;;;;;;;6.00;3.03;;;;;;;3.15;58.65;101246.69;5063845;28;20424;-71
2021/01/16 10:06:47;;;;;;;5.57;3.40;;;;;;;3.46;60.53;101248.69;5063705;28;20021;-70
2021/01/16 10:09:20;;;;;;;5.65;3.28;;;;;;;4.10;60.97;101247.31;5063432;28;20017;-71
2021/01/16 10:11:46;;;;;;;5.55;2.90;;;;;;;4.62;59.44;101241.16;5079082;28;20359;-74
2021/01/16 10:14:22;;;;;;;4.32;2.90;;;;;;;5.05;54.78;101249.22;5078850;28;20364;-74
2021/01/16 10:16:50;;;;;;;5.38;3.47;;;;;;;5.22;56.93;101239.41;5063492;28;20056;-74
2021/01/16 10:19:17;;;;;;;5.25;3.08;;;;;;;5.59;57.38;101247.25;5063487;28;20021;-74
2021/01/16 10:21:56;;;;;;;4.47;2.90;;;;;;;5.70;55.77;101227.75;5063148;28;20017;-73
2021/01/16 10:24:23;;;;;;;5.47;3.15;;;;;;;5.87;53.98;101229.00;5062350;28;20025;-73
2021/01/16 10:26:49;;;;;;;5.13;3.20;;;;;;;5.73;52.60;101250.19;5081141;28;20059;-74
2021/01/16 10:29:36;;;;;;;4.40;3.55;;;;;;;5.73;52.86;101246.72;5064580;28;20017;-74
2021/01/16 10:32:24;;;;;;;6.95;2.80;;;;;;;5.17;50.21;101249.59;5065924;28;20036;-76
2021/01/16 10:34:50;;;;;;;7.82;3.45;;;;;;;4.39;54.69;101218.19;5068131;28;20056;-76
2021/01/16 10:37:17;;;;;;;5.38;3.33;;;;;;;3.78;54.08;101208.59;5067658;28;20025;-76
2021/01/16 10:39:48;;;;;;;6.15;3.25;;;;;;;3.07;56.67;101231.03;5066165;28;20056;-73
2021/01/16 10:42:16;;;;;;;14.50;3.92;;;;;;;2.14;58.38;101231.88;5067556;28;20346;-74
2021/01/16 10:44:42;;;;;;;6.32;3.10;;;;;;;1.19;57.40;101230.53;5068160;28;20049;-75
2021/01/16 10:47:34;;;;;;;4.20;2.40;;;;;;;0.72;57.79;101238.72;5067145;28;20071;-75
2021/01/16 10:50:06;;;;;;;5.93;3.05;;;;;;;0.28;59.77;101233.31;5067397;28;20049;-74
2021/01/16 10:52:32;;;;;;;6.10;3.28;;;;;;;-0.60;60.49;101200.16;5082354;28;20029;-74
2021/01/16 10:55:05;;;;;;;7.63;3.15;;;;;;;-0.79;62.43;101237.50;5082729;28;20500;-75
2021/01/16 10:57:47;;;;;;;4.47;2.50;;;;;;;-1.11;61.80;101227.38;5066047;28;20055;-75
2021/01/16 11:00:19;;;;;;;4.43;2.95;;;;;;;-1.33;62.67;101233.88;5067344;28;20016;-75
2021/01/16 11:02:49;;;;;;;5.30;3.15;;;;;;;-1.69;64.18;101233.63;5065715;28;20024;-75
2021/01/16 11:05:25;;;;;;;4.53;2.67;;;;;;;-1.84;64.77;101232.00;5067118;28;20025;-75
2021/01/16 11:07:51;;;;;;;4.93;2.72;;;;;;;-2.20;64.88;101190.94;5066818;28;20025;-73
2021/01/16 11:10:26;;;;;;;4.78;2.92;;;;;;;-2.35;65.50;101193.50;5066900;28;20052;-74
2021/01/16 11:12:52;;;;;;;5.47;3.40;;;;;;;-2.22;65.63;101223.06;5065653;28;20029;-75
2021/01/16 11:15:44;;;;;;;5.38;3.67;;;;;;;-2.11;67.68;101229.66;5066830;28;20067;-76
2021/01/16 11:18:26;;;;;;;7.38;3.40;;;;;;;-2.06;68.02;101186.66;5064885;28;20041;-74
2021/01/16 11:20:58;;;;;;;4.75;2.88;;;;;;;-1.69;67.54;101175.06;5082238;28;20021;-76
2021/01/16 11:23:48;;;;;;;7.03;3.10;;;;;;;-1.07;66.33;101220.78;5066218;28;20032;-74
2021/01/16 11:26:16;;;;;;;6.82;3.15;;;;;;;-0.61;64.90;101204.41;5082089;28;20437;-75
2021/01/16 11:28:48;;;;;;;5.78;3.28;;;;;;;0.23;62.75;101195.66;5066464;28;20048;-74
2021/01/16 11:31:31;;;;;;;5.88;3.03;;;;;;;1.36;60.59;101216.81;5081843;28;20367;-74
2021/01/16 11:34:09;;;;;;;6.63;3.50;;;;;;;2.21;58.93;101208.25;5066688;28;20028;-75